createdAt,value
2023-04-13T00:01:00.137Z,0.20
2023-04-13T00:03:33.631Z,0.30
2023-04-13T00:06:04.087Z,0.47
2023-04-13T00:08:36.214Z,0.50
2023-04-13T00:11:06.885Z,0.40
2023-04-13T00:13:40.833Z,0.33
2023-04-13T00:16:12.547Z,0.27
2023-04-13T00:18:41.622Z,0.30
2023-04-13T00:21:12.384Z,0.30
2023-04-13T00:23:40.865Z,0.40
2023-04-13T00:26:09.346Z,0.70
2023-04-13T00:28:37.957Z,0.30
2023-04-13T00:31:07.311Z,0.40
2023-04-13T00:33:35.895Z,0.40
2023-04-13T00:36:06.838Z,0.30
2023-04-13T00:38:37.015Z,0.40
2023-04-13T00:41:06.062Z,0.20
2023-04-13T00:43:34.419Z,0.33
2023-04-13T00:46:02.928Z,0.40
2023-04-13T00:48:31.879Z,0.50
2023-04-13T00:51:00.395Z,0.40
2023-04-13T00:53:29.859Z,0.50
2023-04-13T00:56:00.034Z,0.40
2023-04-13T00:58:28.626Z,0.60
2023-04-13T01:00:57.738Z,0.40
2023-04-13T01:03:27.465Z,0.53
2023-04-13T01:06:12.092Z,0.40
2023-04-13T01:08:48.094Z,0.57
2023-04-13T01:11:28.841Z,0.50
2023-04-13T01:14:07.156Z,0.40
2023-04-13T01:16:41.858Z,0.50
2023-04-13T01:19:21.780Z,0.40
2023-04-13T01:21:54.775Z,0.33
2023-04-13T01:24:40.524Z,0.60
2023-04-13T01:27:20.413Z,0.47
2023-04-13T01:29:51.881Z,0.40
2023-04-13T01:32:21.413Z,0.47
2023-04-13T01:34:50.199Z,0.40
2023-04-13T01:37:19.828Z,0.30
2023-04-13T01:39:50.445Z,0.40
2023-04-13T01:42:25.411Z,0.40
2023-04-13T01:44:55.718Z,0.30
2023-04-13T01:47:26.784Z,0.60
2023-04-13T01:50:18.116Z,0.30
2023-04-13T01:52:55.333Z,0.50
2023-04-13T01:55:28.147Z,0.40
2023-04-13T01:58:02.110Z,0.20
2023-04-13T02:00:36.973Z,0.30
2023-04-13T02:03:12.357Z,0.27
2023-04-13T02:05:41.618Z,0.40
2023-04-13T02:08:11.257Z,0.30
2023-04-13T02:10:46.878Z,0.37
2023-04-13T02:13:15.927Z,0.20
2023-04-13T02:15:46.124Z,0.30
2023-04-13T02:18:14.636Z,0.20
2023-04-13T02:20:46.506Z,0.40
2023-04-13T02:23:15.977Z,0.33
2023-04-13T02:25:47.945Z,0.40
2023-04-13T02:28:18.038Z,0.40
2023-04-13T02:30:50.261Z,0.30
2023-04-13T02:33:19.242Z,0.50
2023-04-13T02:35:48.890Z,0.40
2023-04-13T02:38:18.398Z,0.50
2023-04-13T02:40:58.952Z,0.50
2023-04-13T02:43:28.907Z,0.43
2023-04-13T02:45:59.888Z,0.43
2023-04-13T02:48:34.533Z,0.50
2023-04-13T02:51:07.104Z,0.20
2023-04-13T02:53:40.061Z,0.90
2023-04-13T02:56:10.765Z,0.50
2023-04-13T02:58:39.298Z,0.37
2023-04-13T03:01:17.391Z,0.30
2023-04-13T03:03:45.913Z,0.50
2023-04-13T03:06:14.780Z,0.50
2023-04-13T03:08:51.406Z,0.30
2023-04-13T03:11:26.093Z,0.40
2023-04-13T03:14:21.807Z,0.30
2023-04-13T03:16:57.910Z,0.37
2023-04-13T03:19:35.453Z,0.30
2023-04-13T03:22:04.391Z,0.30
2023-04-13T03:24:35.283Z,0.40
2023-04-13T03:27:08.040Z,0.40
2023-04-13T03:29:42.436Z,0.20
2023-04-13T03:32:17.620Z,0.40
2023-04-13T03:34:50.536Z,0.23
2023-04-13T03:37:20.057Z,0.30
2023-04-13T03:39:52.311Z,0.30
2023-04-13T03:42:24.591Z,0.33
2023-04-13T03:44:58.316Z,0.37
2023-04-13T03:47:28.433Z,0.40
2023-04-13T03:49:56.914Z,0.27
2023-04-13T03:52:25.957Z,0.27
2023-04-13T03:55:01.894Z,0.40
2023-04-13T03:57:34.628Z,0.30
2023-04-13T04:00:11.294Z,0.37
2023-04-13T04:02:48.370Z,0.27
2023-04-13T04:05:25.380Z,0.40
2023-04-13T04:08:01.765Z,0.50
2023-04-13T04:10:30.917Z,0.40
2023-04-13T04:13:00.838Z,0.43
2023-04-13T04:15:31.225Z,0.30
2023-04-13T04:18:07.217Z,0.30
2023-04-13T04:20:39.321Z,0.50
2023-04-13T04:23:09.863Z,0.40
2023-04-13T04:25:46.862Z,0.30
2023-04-13T04:28:18.103Z,0.40
2023-04-13T04:30:54.131Z,0.40
2023-04-13T04:33:27.240Z,0.60
2023-04-13T04:35:56.248Z,0.20
2023-04-13T04:38:32.633Z,0.97
2023-04-13T04:41:06.402Z,0.23
2023-04-13T04:43:35.825Z,0.30
2023-04-13T04:46:06.246Z,0.33
2023-04-13T04:48:39.244Z,0.30
2023-04-13T04:51:09.506Z,0.40
2023-04-13T04:53:38.070Z,0.40
2023-04-13T04:56:10.727Z,0.30
2023-04-13T04:58:49.393Z,0.30
2023-04-13T05:01:22.913Z,0.30
2023-04-13T05:03:55.567Z,0.30
2023-04-13T05:06:33.431Z,0.23
2023-04-13T05:09:05.964Z,0.23
2023-04-13T05:11:36.800Z,0.20
2023-04-13T05:14:08.324Z,0.37
2023-04-13T05:16:37.744Z,0.30
2023-04-13T05:19:16.557Z,0.17
2023-04-13T05:21:54.257Z,0.30
2023-04-13T05:24:23.711Z,0.40
2023-04-13T05:26:53.636Z,0.30
2023-04-13T05:29:24.689Z,0.20
2023-04-13T05:31:53.728Z,0.30
2023-04-13T05:34:24.444Z,0.30
2023-04-13T05:37:06.619Z,0.60
2023-04-13T05:39:35.267Z,0.20
2023-04-13T05:42:04.777Z,0.20
2023-04-13T05:44:38.236Z,0.30
2023-04-13T05:47:07.431Z,0.40
2023-04-13T05:49:38.763Z,0.23
2023-04-13T05:52:09.191Z,0.40
2023-04-13T05:54:45.028Z,0.30
2023-04-13T05:57:13.860Z,0.33
2023-04-13T05:59:47.908Z,0.23
2023-04-13T06:02:22.602Z,0.30
2023-04-13T06:04:54.926Z,0.47
2023-04-13T06:07:24.277Z,0.40
2023-04-13T06:09:52.822Z,0.47
2023-04-13T06:12:24.313Z,0.30
2023-04-13T06:14:54.648Z,0.53
2023-04-13T06:17:23.096Z,0.50
2023-04-13T06:19:54.489Z,0.50
2023-04-13T06:22:23.511Z,0.30
2023-04-13T06:24:52.791Z,0.57
2023-04-13T06:27:21.373Z,0.60
2023-04-13T06:29:51.942Z,0.40
2023-04-13T06:32:20.934Z,0.40
2023-04-13T06:34:49.279Z,0.53
2023-04-13T06:37:20.676Z,0.40
2023-04-13T06:39:52.523Z,0.33
2023-04-13T06:42:21.215Z,0.40
2023-04-13T06:45:23.011Z,0.30
2023-04-13T06:47:53.732Z,0.40
2023-04-13T06:50:22.622Z,0.33
2023-04-13T06:52:53.228Z,0.60
2023-04-13T06:55:22.261Z,0.40
2023-04-13T06:57:50.726Z,0.40
2023-04-13T07:00:29.473Z,0.40
2023-04-13T07:03:00.566Z,0.40
2023-04-13T07:05:30.185Z,0.40
2023-04-13T07:08:07.797Z,0.30
2023-04-13T07:10:39.437Z,0.37
2023-04-13T07:13:13.376Z,0.40
2023-04-13T07:15:42.655Z,0.30
2023-04-13T07:18:11.308Z,0.40
2023-04-13T07:20:41.298Z,0.40
2023-04-13T07:23:12.739Z,0.50
2023-04-13T07:25:41.746Z,0.33
2023-04-13T07:28:17.701Z,0.40
2023-04-13T07:30:47.943Z,0.40
2023-04-13T07:33:17.364Z,0.40
2023-04-13T07:35:47.304Z,0.43
2023-04-13T07:38:17.165Z,0.37
2023-04-13T07:40:46.868Z,0.30
2023-04-13T07:43:15.488Z,0.30
2023-04-13T07:45:46.300Z,0.30
2023-04-13T07:48:16.035Z,0.40
2023-04-13T07:50:45.417Z,0.60
2023-04-13T07:53:21.090Z,0.40
2023-04-13T07:55:50.228Z,0.50
2023-04-13T07:58:19.133Z,0.60
2023-04-13T08:00:49.175Z,0.40
2023-04-13T08:03:17.875Z,0.30
2023-04-13T08:05:51.988Z,0.43
2023-04-13T08:08:22.215Z,0.30
2023-04-13T08:10:51.517Z,0.30
2023-04-13T08:13:20.692Z,0.40
2023-04-13T08:15:49.329Z,0.40
2023-04-13T08:18:18.639Z,0.40
2023-04-13T08:20:49.117Z,0.50
2023-04-13T08:23:21.791Z,0.23
2023-04-13T08:25:51.720Z,0.30
2023-04-13T08:28:20.295Z,0.30
2023-04-13T08:30:48.832Z,0.30
2023-04-13T08:33:17.612Z,0.23
2023-04-13T08:35:46.349Z,0.40
2023-04-13T08:38:15.414Z,0.30
2023-04-13T08:40:50.873Z,0.50
2023-04-13T08:43:25.332Z,0.50
2023-04-13T08:45:54.720Z,0.40
2023-04-13T08:48:23.971Z,0.40
2023-04-13T08:50:54.679Z,0.30
2023-04-13T08:53:23.404Z,0.47
2023-04-13T08:55:55.895Z,0.60
2023-04-13T08:58:27.815Z,0.30
2023-04-13T09:00:56.805Z,0.60
2023-04-13T09:03:28.746Z,0.40
2023-04-13T09:06:04.727Z,0.50
2023-04-13T09:08:35.900Z,0.57
2023-04-13T09:11:10.281Z,0.60
2023-04-13T09:13:38.792Z,0.40
2023-04-13T09:16:08.826Z,0.63
2023-04-13T09:18:52.647Z,0.60
2023-04-13T09:21:21.565Z,0.63
2023-04-13T09:23:57.601Z,0.40
2023-04-13T09:26:28.100Z,0.40
2023-04-13T09:28:58.455Z,0.33
2023-04-13T09:31:27.012Z,0.50
2023-04-13T09:33:56.606Z,0.60
2023-04-13T09:36:29.649Z,0.40
2023-04-13T09:38:58.514Z,0.60
2023-04-13T09:41:33.720Z,0.40
2023-04-13T09:44:02.601Z,0.70
2023-04-13T09:46:31.421Z,0.50
2023-04-13T09:49:02.656Z,0.60
2023-04-13T09:51:42.223Z,0.80
2023-04-13T09:54:12.535Z,0.50
2023-04-13T09:56:47.057Z,0.60
2023-04-13T09:59:15.849Z,0.53
2023-04-13T10:01:45.243Z,0.60
2023-04-13T10:04:14.524Z,0.63
2023-04-13T10:06:44.830Z,0.50
2023-04-13T10:09:13.841Z,0.70
2023-04-13T10:11:49.279Z,0.70
2023-04-13T10:14:23.193Z,0.90
2023-04-13T10:17:19.444Z,0.60
2023-04-13T10:19:52.084Z,0.70
2023-04-13T10:22:23.175Z,0.80
2023-04-13T10:24:53.360Z,0.80
2023-04-13T10:27:24.160Z,0.70
2023-04-13T10:29:53.497Z,0.67
2023-04-13T10:32:24.241Z,0.43
2023-04-13T10:34:53.332Z,0.70
2023-04-13T10:37:23.847Z,0.93
2023-04-13T10:40:05.743Z,0.63
2023-04-13T10:45:21.383Z,0.70
2023-04-13T10:47:50.006Z,0.60
2023-04-13T10:50:19.961Z,0.80
2023-04-13T10:53:04.790Z,1.00
2023-04-13T10:55:34.074Z,0.60
2023-04-13T10:58:15.535Z,1.10
2023-04-13T11:00:47.313Z,0.77
2023-04-13T11:03:19.101Z,0.80
2023-04-13T11:05:48.723Z,0.80
2023-04-13T11:08:21.929Z,0.97
2023-04-13T11:10:54.350Z,0.80
2023-04-13T11:13:26.925Z,0.97
2023-04-13T11:16:04.059Z,0.87
2023-04-13T11:18:32.885Z,0.83
2023-04-13T11:21:05.232Z,0.83
2023-04-13T11:23:37.336Z,0.77
2023-04-13T11:26:06.880Z,1.10
2023-04-13T11:28:42.062Z,1.10
2023-04-13T11:31:11.408Z,1.10
2023-04-13T11:33:41.158Z,1.00
2023-04-13T11:36:11.765Z,1.17
2023-04-13T11:38:42.617Z,1.20
2023-04-13T11:41:16.972Z,1.00
2023-04-13T11:43:48.794Z,0.90
2023-04-13T11:46:25.770Z,1.10
2023-04-13T11:48:54.540Z,0.90
2023-04-13T11:51:23.662Z,0.87
2023-04-13T11:53:53.132Z,0.90
2023-04-13T11:56:22.332Z,0.93
2023-04-13T11:58:53.835Z,1.13
2023-04-13T12:01:27.014Z,0.90
2023-04-13T12:04:12.976Z,1.00
2023-04-13T12:06:47.748Z,0.80
2023-04-13T12:09:19.234Z,0.90
2023-04-13T12:12:08.412Z,0.87
2023-04-13T12:19:47.060Z,0.70
2023-04-13T12:22:17.612Z,0.60
2023-04-13T12:24:47.055Z,0.63
2023-04-13T12:27:20.484Z,0.60
2023-04-13T12:29:50.752Z,0.60
2023-04-13T12:32:19.241Z,0.50
2023-04-13T12:34:48.828Z,0.90
2023-04-13T12:37:18.075Z,0.70
2023-04-13T12:39:46.718Z,0.83
2023-04-13T12:42:15.095Z,0.97
2023-04-13T12:44:43.525Z,0.60
2023-04-13T12:47:13.611Z,0.70
2023-04-13T12:49:42.138Z,0.80
2023-04-13T12:52:10.719Z,0.60
2023-04-13T12:54:39.235Z,0.80
2023-04-13T12:57:07.752Z,0.70
2023-04-13T12:59:36.057Z,0.53
2023-04-13T13:02:05.187Z,0.70
2023-04-13T13:04:35.535Z,0.80
2023-04-13T13:07:04.453Z,0.80
2023-04-13T13:09:33.155Z,0.80
2023-04-13T13:12:02.645Z,0.60
2023-04-13T13:14:32.656Z,0.80
2023-04-13T13:17:02.756Z,0.70
2023-04-13T13:19:31.844Z,0.93
2023-04-13T13:22:03.090Z,0.80
2023-04-13T13:24:31.949Z,0.80
2023-04-13T13:27:37.428Z,1.00
2023-04-13T13:29:49.262Z,0.70
2023-04-13T13:32:19.478Z,0.90
2023-04-13T13:34:48.624Z,0.73
2023-04-13T13:37:18.884Z,1.10
2023-04-13T13:39:47.625Z,1.00
2023-04-13T13:42:16.262Z,0.90
2023-04-13T13:44:44.795Z,0.90
2023-04-13T13:47:13.356Z,0.80
2023-04-13T13:49:45.134Z,1.07
2023-04-13T13:52:33.726Z,0.83
2023-04-13T13:55:04.501Z,0.87
2023-04-13T13:57:33.321Z,0.67
2023-04-13T14:00:02.000Z,1.10
2023-04-13T14:02:40.216Z,0.97
2023-04-13T14:05:13.140Z,1.20
2023-04-13T14:07:45.844Z,0.90
2023-04-13T14:10:14.896Z,0.97
2023-04-13T14:12:50.272Z,0.60
2023-04-13T14:15:19.890Z,0.80
2023-04-13T14:17:58.742Z,1.17
2023-04-13T14:20:39.056Z,0.80
2023-04-13T14:23:10.266Z,1.00
2023-04-13T14:25:41.167Z,0.70
2023-04-13T14:28:11.579Z,0.87
2023-04-13T14:30:40.813Z,0.83
2023-04-13T14:33:09.172Z,0.83
2023-04-13T14:35:38.755Z,0.90
2023-04-13T14:38:09.740Z,0.80
2023-04-13T14:40:38.394Z,0.80
2023-04-13T14:43:06.855Z,1.03
2023-04-13T14:45:35.488Z,1.00
2023-04-13T14:48:04.144Z,0.93
2023-04-13T14:50:33.135Z,0.87
2023-04-13T14:53:04.693Z,0.90
2023-04-13T14:55:35.275Z,1.00
2023-04-13T14:58:03.781Z,0.80
2023-04-13T15:00:41.869Z,0.97
2023-04-13T15:03:12.422Z,1.00
2023-04-13T15:05:41.744Z,0.90
2023-04-13T15:08:11.720Z,1.20
2023-04-13T15:10:42.722Z,0.83
2023-04-13T15:13:11.787Z,0.70
2023-04-13T15:15:41.431Z,1.00
2023-04-13T15:18:10.239Z,1.00
2023-04-13T15:20:38.665Z,0.90
2023-04-13T15:23:07.389Z,0.70
2023-04-13T15:25:38.690Z,0.90
2023-04-13T15:28:10.385Z,1.10
2023-04-13T15:30:38.877Z,0.73
2023-04-13T15:33:07.357Z,0.90
2023-04-13T15:35:36.519Z,0.90
2023-04-13T15:38:05.557Z,0.77
2023-04-13T15:40:36.245Z,0.80
2023-04-13T15:43:05.769Z,0.83
2023-04-13T15:45:36.260Z,0.60
2023-04-13T15:48:05.008Z,0.90
2023-04-13T15:50:33.474Z,0.83
2023-04-13T15:53:01.859Z,0.87
2023-04-13T15:55:30.628Z,0.80
2023-04-13T15:57:59.095Z,0.70
2023-04-13T16:00:28.048Z,0.90
2023-04-13T16:02:58.944Z,0.90
2023-04-13T16:05:31.758Z,0.93
2023-04-13T16:08:00.342Z,0.77
2023-04-13T16:10:28.764Z,0.70
2023-04-13T16:12:57.390Z,0.63
2023-04-13T16:15:26.192Z,0.90
2023-04-13T16:17:56.943Z,0.60
2023-04-13T16:20:28.478Z,0.80
2023-04-13T16:23:02.343Z,0.77
2023-04-13T16:25:30.857Z,0.60
2023-04-13T16:27:59.290Z,0.70
2023-04-13T16:30:28.712Z,0.77
2023-04-13T16:32:57.185Z,0.93
2023-04-13T16:35:27.269Z,0.63
2023-04-13T16:37:56.188Z,0.80
2023-04-13T16:40:24.691Z,0.60
2023-04-13T16:42:53.270Z,0.93
2023-04-13T16:45:22.019Z,0.57
2023-04-13T16:47:51.033Z,0.77
2023-04-13T16:50:20.040Z,0.60
2023-04-13T16:52:49.974Z,1.00
2023-04-13T16:55:18.382Z,0.60
2023-04-13T16:57:47.169Z,0.70
2023-04-13T17:00:18.238Z,0.60
2023-04-13T17:02:46.921Z,0.60
2023-04-13T17:05:16.145Z,0.53
2023-04-13T17:07:47.649Z,0.70
2023-04-13T17:10:18.789Z,0.60
2023-04-13T17:12:48.200Z,0.87
2023-04-13T17:15:16.908Z,0.60
2023-04-13T17:17:45.637Z,0.63
2023-04-13T17:20:16.786Z,0.83
2023-04-13T17:22:46.083Z,0.80
2023-04-13T17:25:16.257Z,0.53
2023-04-13T17:27:44.774Z,1.03
2023-04-13T17:30:13.967Z,0.83
2023-04-13T17:32:42.862Z,0.50
2023-04-13T17:35:11.710Z,0.50
2023-04-13T17:37:40.167Z,0.90
2023-04-13T17:40:10.573Z,0.67
2023-04-13T17:42:40.454Z,0.60
2023-04-13T17:45:10.767Z,0.90
2023-04-13T17:47:39.419Z,0.70
2023-04-13T17:50:09.547Z,0.77
2023-04-13T17:52:38.127Z,0.90
2023-04-13T17:55:07.734Z,0.60
2023-04-13T17:57:36.196Z,0.53
2023-04-13T18:00:08.458Z,0.60
2023-04-13T18:02:39.383Z,0.77
2023-04-13T18:05:15.174Z,0.70
2023-04-13T18:07:43.712Z,0.70
2023-04-13T18:10:12.774Z,0.70
2023-04-13T18:12:42.241Z,0.90
2023-04-13T18:15:14.036Z,0.80
2023-04-13T18:17:43.399Z,0.80
2023-04-13T18:20:13.361Z,0.70
2023-04-13T18:22:42.032Z,0.80
2023-04-13T18:25:13.552Z,1.00
2023-04-13T18:27:42.918Z,1.57
2023-04-13T18:30:16.986Z,1.10
2023-04-13T18:32:45.532Z,1.20
2023-04-13T18:35:14.647Z,1.33
2023-04-13T18:37:43.079Z,1.07
2023-04-13T18:40:12.632Z,1.37
2023-04-13T18:42:41.998Z,1.27
2023-04-13T18:45:12.443Z,1.10
2023-04-13T18:47:42.411Z,1.07
2023-04-13T18:50:13.383Z,1.10
2023-04-13T18:52:41.768Z,1.40
2023-04-13T18:55:11.010Z,1.13
2023-04-13T18:57:42.800Z,1.13
2023-04-13T19:00:13.546Z,1.20
2023-04-13T19:02:46.634Z,1.40
2023-04-13T19:05:15.400Z,1.00
2023-04-13T19:07:54.271Z,0.97
2023-04-13T19:10:23.984Z,1.20
2023-04-13T19:12:52.669Z,1.00
2023-04-13T19:15:22.218Z,0.80
2023-04-13T19:17:52.849Z,0.90
2023-04-13T19:20:24.670Z,1.07
2023-04-13T19:22:54.234Z,0.93
2023-04-13T19:25:23.134Z,1.27
2023-04-13T19:27:51.463Z,1.20
2023-04-13T19:30:20.109Z,1.17
2023-04-13T19:32:51.708Z,1.40
2023-04-13T19:35:22.361Z,0.90
2023-04-13T19:37:51.187Z,0.90
2023-04-13T19:40:20.211Z,1.10
2023-04-13T19:42:49.155Z,0.97
2023-04-13T19:45:17.653Z,0.70
2023-04-13T19:47:47.489Z,0.80
2023-04-13T19:50:23.047Z,1.07
2023-04-13T19:52:53.063Z,0.80
2023-04-13T19:55:21.655Z,0.93
2023-04-13T19:57:50.161Z,0.90
2023-04-13T20:00:20.803Z,0.90
2023-04-13T20:02:51.789Z,0.93
2023-04-13T20:05:22.389Z,0.70
2023-04-13T20:07:53.166Z,1.00
2023-04-13T20:10:21.502Z,0.90
2023-04-13T20:12:49.931Z,0.87
2023-04-13T20:15:18.603Z,0.97
2023-04-13T20:17:48.056Z,0.90
2023-04-13T20:20:17.915Z,0.93
2023-04-13T20:22:53.190Z,1.20
2023-04-13T20:25:21.701Z,1.03
2023-04-13T20:27:50.404Z,1.00
2023-04-13T20:30:18.936Z,0.97
2023-04-13T20:32:47.809Z,1.13
2023-04-13T20:35:16.297Z,1.10
2023-04-13T20:37:45.162Z,1.27
2023-04-13T20:40:15.499Z,1.10
2023-04-13T20:42:44.365Z,0.97
2023-04-13T20:45:14.948Z,1.40
2023-04-13T20:47:44.792Z,1.50
2023-04-13T20:50:15.467Z,1.70
2023-04-13T20:52:46.392Z,1.60
2023-04-13T20:55:17.405Z,1.70
2023-04-13T20:57:46.802Z,1.27
2023-04-13T21:00:16.601Z,1.40
2023-04-13T21:02:46.779Z,1.40
2023-04-13T21:05:15.573Z,1.53
2023-04-13T21:07:45.344Z,1.40
2023-04-13T21:10:17.862Z,1.40
2023-04-13T21:12:46.270Z,1.33
2023-04-13T21:15:15.078Z,1.50
2023-04-13T21:17:43.537Z,1.60
2023-04-13T21:20:13.669Z,1.50
2023-04-13T21:22:42.115Z,1.37
2023-04-13T21:25:10.972Z,1.30
2023-04-13T21:27:41.405Z,1.30
2023-04-13T21:30:11.363Z,1.10
2023-04-13T21:32:40.088Z,1.13
2023-04-13T21:35:10.196Z,1.37
2023-04-13T21:37:38.674Z,1.27
2023-04-13T21:40:09.148Z,1.20
2023-04-13T21:42:38.114Z,1.20
2023-04-13T21:45:10.547Z,1.17
2023-04-13T21:47:39.088Z,1.30
2023-04-13T21:50:09.327Z,1.27
2023-04-13T21:52:39.629Z,1.13
2023-04-13T21:55:17.627Z,0.73
2023-04-13T21:57:46.476Z,1.60
2023-04-13T22:00:18.024Z,1.10
2023-04-13T22:02:46.468Z,1.23
2023-04-13T22:05:16.997Z,1.10
2023-04-13T22:07:45.646Z,1.23
2023-04-13T22:10:14.568Z,1.13
2023-04-13T22:12:44.260Z,1.10
2023-04-13T22:15:16.275Z,1.20
2023-04-13T22:17:46.876Z,1.23
2023-04-13T22:20:16.101Z,0.93
2023-04-13T22:22:44.421Z,1.03
2023-04-13T22:25:13.090Z,0.60
2023-04-13T22:27:41.498Z,0.83
2023-04-13T22:30:12.186Z,0.57
2023-04-13T22:32:41.796Z,0.73
2023-04-13T22:35:12.780Z,0.97
2023-04-13T22:37:41.190Z,0.60
2023-04-13T22:40:11.277Z,0.97
2023-04-13T22:42:39.733Z,0.73
2023-04-13T22:45:09.486Z,0.90
2023-04-13T22:47:40.597Z,0.73
2023-04-13T22:50:11.754Z,0.80
2023-04-13T22:52:40.255Z,0.70
2023-04-13T22:55:12.058Z,0.90
2023-04-13T22:57:40.823Z,0.70
2023-04-13T23:00:11.868Z,0.80
2023-04-13T23:02:40.451Z,0.70
2023-04-13T23:05:11.122Z,0.77
2023-04-13T23:07:39.543Z,0.80
2023-04-13T23:10:09.904Z,0.70
2023-04-13T23:12:38.303Z,0.63
2023-04-13T23:15:09.534Z,0.60
2023-04-13T23:17:37.980Z,1.00
2023-04-13T23:20:08.298Z,0.80
2023-04-13T23:22:38.153Z,0.80
2023-04-13T23:25:07.530Z,1.00
2023-04-13T23:27:36.009Z,0.90
2023-04-13T23:30:04.806Z,0.80
2023-04-13T23:32:33.467Z,0.53
2023-04-13T23:35:02.239Z,0.90
2023-04-13T23:37:30.933Z,1.10
2023-04-13T23:40:01.448Z,0.70
2023-04-13T23:42:30.017Z,0.80
2023-04-13T23:44:58.741Z,0.97
2023-04-13T23:47:28.030Z,0.70
2023-04-13T23:49:56.460Z,0.90
2023-04-13T23:52:24.784Z,0.70
2023-04-13T23:54:53.136Z,0.83
2023-04-13T23:57:22.999Z,1.00
2023-04-13T23:59:57.320Z,0.73
